Time;durP1;ratioP1;P1;durP2;ratioP2;P2;SDS_P1;SDS_P2;PMS_P1;PMS_P2;Temp;Humidity;BMP_temperature;BMP_pressure;BME280_temperature;BME280_humidity;BME280_pressure;Samples;Min_cycle;Max_cycle;Signal;HPM_P1;HPM_P2
2022/01/11 00:00:21;;;;;;;8.37;7.30;;;;;;;7.53;100.00;98907.88;5072862;28;20192;-68
2022/01/11 00:02:49;;;;;;;8.23;7.53;;;;;;;7.41;100.00;98914.69;5073687;28;20249;-69
2022/01/11 00:05:22;;;;;;;7.07;6.57;;;;;;;7.49;100.00;98919.84;5073685;28;20256;-69
2022/01/11 00:07:49;;;;;;;6.80;6.20;;;;;;;7.44;100.00;98925.72;5073633;28;20179;-70
2022/01/11 00:10:24;;;;;;;8.13;7.13;;;;;;;7.47;100.00;98927.16;5073632;28;20257;-68
2022/01/11 00:12:52;;;;;;;8.10;6.77;;;;;;;7.45;100.00;98926.50;5073770;28;20188;-70
2022/01/11 00:15:20;;;;;;;6.67;6.07;;;;;;;7.35;100.00;98923.38;5074081;28;20188;-68
2022/01/11 00:17:46;;;;;;;7.87;7.03;;;;;;;7.44;100.00;98923.06;5073266;28;20195;-68
2022/01/11 00:20:16;;;;;;;7.83;7.13;;;;;;;7.52;100.00;98940.59;5073190;28;20195;-69
2022/01/11 00:24:26;;;;;;;6.33;5.80;;;;;;;7.49;100.00;98930.41;5073170;28;20187;-68
2022/01/11 00:25:31;;;;;;;7.03;6.47;;;;;;;7.45;100.00;98945.00;5073656;28;20192;-68
2022/01/11 00:27:59;;;;;;;7.10;6.40;;;;;;;7.36;100.00;98948.78;5073421;28;20200;-68
2022/01/11 00:30:30;;;;;;;6.97;6.37;;;;;;;7.40;100.00;98942.13;5073001;28;20192;-69
2022/01/11 00:32:59;;;;;;;6.83;6.33;;;;;;;7.48;100.00;98958.66;5073245;28;20310;-69
2022/01/11 00:35:28;;;;;;;5.60;5.20;;;;;;;7.41;100.00;98970.16;5073409;28;20645;-68
2022/01/11 00:37:56;;;;;;;6.83;6.33;;;;;;;7.51;100.00;98960.91;5073073;28;20192;-69
2022/01/11 00:40:23;;;;;;;6.30;5.80;;;;;;;7.35;100.00;98963.81;5072788;28;20196;-69
2022/01/11 00:42:50;;;;;;;6.17;5.77;;;;;;;7.42;100.00;98974.44;5073327;28;20222;-69
2022/01/11 00:45:18;;;;;;;6.87;6.40;;;;;;;7.30;100.00;98971.50;5072844;28;20192;-68
2022/01/11 00:47:45;;;;;;;6.13;5.73;;;;;;;7.25;100.00;98976.53;5073938;28;20270;-68
2022/01/11 00:50:12;;;;;;;7.13;6.53;;;;;;;7.13;100.00;98964.81;5072630;28;20248;-69
2022/01/11 00:52:38;;;;;;;7.17;6.57;;;;;;;7.26;100.00;98972.06;5072491;28;20705;-69
2022/01/11 00:55:06;;;;;;;6.87;6.37;;;;;;;7.12;100.00;98984.31;5073388;28;20192;-69
2022/01/11 00:57:33;;;;;;;5.63;5.27;;;;;;;7.10;100.00;98985.50;5072671;28;20253;-70
2022/01/11 01:00:00;;;;;;;6.10;5.70;;;;;;;7.16;100.00;98985.56;5072393;28;20664;-68
2022/01/11 01:02:28;;;;;;;6.00;5.60;;;;;;;7.16;100.00;98968.91;5072685;28;20196;-69
2022/01/11 01:04:54;;;;;;;6.57;6.17;;;;;;;7.15;100.00;98983.13;5072182;28;20242;-68
2022/01/11 01:07:21;;;;;;;5.83;5.43;;;;;;;6.98;100.00;98994.91;5072367;28;20192;-68
2022/01/11 01:09:57;;;;;;;6.17;5.67;;;;;;;6.81;100.00;98996.13;5072699;28;20198;-69
2022/01/11 01:12:24;;;;;;;6.03;5.63;;;;;;;6.96;100.00;98999.53;5071525;28;20218;-68
2022/01/11 01:14:51;;;;;;;5.80;5.30;;;;;;;7.00;100.00;99008.72;5072179;28;20196;-70
2022/01/11 01:17:17;;;;;;;5.90;5.50;;;;;;;7.08;100.00;99013.91;5071724;28;20257;-69
2022/01/11 01:19:45;;;;;;;6.13;5.63;;;;;;;7.10;100.00;99004.00;5071936;28;20679;-69
2022/01/11 01:22:13;;;;;;;5.50;5.00;;;;;;;7.19;100.00;99005.50;5071883;28;20201;-69
2022/01/11 01:24:40;;;;;;;5.53;5.13;;;;;;;7.14;100.00;99005.25;5072018;28;20659;-68
2022/01/11 01:27:07;;;;;;;6.10;5.50;;;;;;;7.18;100.00;99011.81;5072066;28;20253;-69
2022/01/11 01:29:34;;;;;;;5.90;4.80;;;;;;;7.16;100.00;99011.97;5071906;28;20190;-68
2022/01/11 01:32:01;;;;;;;6.73;6.23;;;;;;;7.07;100.00;99013.06;5071731;28;20232;-68
2022/01/11 01:34:28;;;;;;;5.97;5.43;;;;;;;6.89;100.00;99014.47;5072393;28;20186;-68
2022/01/11 01:36:56;;;;;;;6.23;5.67;;;;;;;6.83;100.00;99010.78;5072285;28;20245;-68
2022/01/11 01:39:24;;;;;;;5.73;5.37;;;;;;;6.92;100.00;99019.38;5072468;28;20245;-69
2022/01/11 01:41:51;;;;;;;11.87;6.73;;;;;;;6.98;100.00;99018.66;5072640;28;20200;-68
2022/01/11 01:44:18;;;;;;;5.40;5.00;;;;;;;6.86;100.00;99010.38;5072225;28;20622;-68
2022/01/11 01:46:45;;;;;;;5.50;5.10;;;;;;;6.83;100.00;99015.22;5071734;28;20702;-68
2022/01/11 01:49:17;;;;;;;8.00;5.57;;;;;;;6.92;100.00;99022.03;5071788;28;20673;-68
2022/01/11 01:51:44;;;;;;;5.50;4.93;;;;;;;6.81;100.00;99036.50;5072410;28;20245;-69
2022/01/11 01:54:12;;;;;;;5.30;5.00;;;;;;;6.87;100.00;99027.03;5071755;28;20650;-69
2022/01/11 01:56:39;;;;;;;6.00;5.60;;;;;;;6.87;100.00;99051.63;5071764;28;20191;-68
2022/01/11 01:59:06;;;;;;;5.37;5.07;;;;;;;6.88;100.00;99047.97;5072395;28;20191;-67
2022/01/11 02:01:37;;;;;;;5.60;5.20;;;;;;;6.82;100.00;99030.22;5072039;28;20191;-70
2022/01/11 02:04:05;;;;;;;6.50;6.10;;;;;;;6.88;100.00;99033.97;5071568;28;20218;-68
2022/01/11 02:06:32;;;;;;;5.10;4.80;;;;;;;6.82;100.00;99039.97;5071947;28;20196;-71
2022/01/11 02:08:58;;;;;;;6.17;5.57;;;;;;;6.69;100.00;99034.53;5071863;28;20196;-69
2022/01/11 02:11:26;;;;;;;5.80;5.40;;;;;;;6.64;100.00;99031.59;5071546;28;20220;-68
2022/01/11 02:13:53;;;;;;;6.23;5.63;;;;;;;6.61;100.00;99027.50;5071819;28;20195;-69
2022/01/11 02:16:22;;;;;;;6.50;5.90;;;;;;;6.64;100.00;99037.72;5071587;28;20248;-69
2022/01/11 02:18:49;;;;;;;5.60;5.20;;;;;;;6.58;100.00;99034.97;5071601;28;20663;-70
2022/01/11 02:21:17;;;;;;;7.03;6.53;;;;;;;6.63;100.00;99035.25;5071638;28;20191;-68
2022/01/11 02:23:44;;;;;;;10.27;6.00;;;;;;;6.56;100.00;99048.34;5072922;28;20195;-68
2022/01/11 02:26:11;;;;;;;7.27;6.53;;;;;;;6.32;100.00;99047.78;5075746;28;20229;-70
2022/01/11 02:28:39;;;;;;;6.23;5.67;;;;;;;6.30;100.00;99060.31;5075156;28;20196;-68
2022/01/11 02:31:12;;;;;;;7.17;6.57;;;;;;;6.40;100.00;99061.69;5075810;28;20192;-68
2022/01/11 02:33:43;;;;;;;7.03;6.37;;;;;;;6.51;100.00;99063.06;5075757;28;20243;-70
2022/01/11 02:36:11;;;;;;;5.97;5.57;;;;;;;6.47;100.00;99062.63;5075470;28;20191;-70
2022/01/11 02:38:39;;;;;;;7.37;6.10;;;;;;;6.40;100.00;99074.09;5075525;28;20253;-70
2022/01/11 02:41:06;;;;;;;6.43;6.03;;;;;;;6.23;100.00;99064.66;5075311;28;20664;-70
2022/01/11 02:43:33;;;;;;;7.73;6.13;;;;;;;6.21;100.00;99056.13;5075389;28;20241;-70
2022/01/11 02:46:01;;;;;;;6.63;6.13;;;;;;;6.17;100.00;99065.41;5075314;28;20630;-69
2022/01/11 02:48:27;;;;;;;6.93;6.37;;;;;;;6.26;100.00;99078.34;5074923;28;20279;-70
2022/01/11 02:50:54;;;;;;;10.40;6.53;;;;;;;6.32;100.00;99060.97;5075251;28;20250;-70
2022/01/11 02:53:21;;;;;;;6.43;6.03;;;;;;;6.38;100.00;99062.88;5075324;28;20282;-70
2022/01/11 02:55:50;;;;;;;6.30;5.23;;;;;;;6.28;100.00;99060.50;5074714;28;20196;-69
2022/01/11 02:58:16;;;;;;;5.73;5.10;;;;;;;6.24;100.00;99077.69;5075112;28;20247;-70
2022/01/11 03:00:43;;;;;;;4.40;4.10;;;;;;;6.07;100.00;99072.72;5075283;28;20261;-70
2022/01/11 03:03:12;;;;;;;5.17;4.87;;;;;;;6.19;100.00;99073.94;5075172;28;20268;-69
2022/01/11 03:05:46;;;;;;;4.37;4.17;;;;;;;6.21;100.00;99074.59;5074834;28;20234;-69
2022/01/11 03:08:12;;;;;;;5.07;4.67;;;;;;;6.10;100.00;99070.56;5074683;28;20184;-71
2022/01/11 03:10:39;;;;;;;5.07;4.73;;;;;;;6.11;100.00;99074.00;5074853;28;20214;-71
2022/01/11 03:13:09;;;;;;;4.50;4.20;;;;;;;5.99;100.00;99067.50;5074643;28;20220;-70
2022/01/11 03:15:36;;;;;;;3.73;3.50;;;;;;;5.99;100.00;99072.78;5075718;28;20189;-70
2022/01/11 03:18:05;;;;;;;3.90;3.60;;;;;;;6.01;100.00;99086.63;5074893;28;20261;-70
2022/01/11 03:20:31;;;;;;;4.10;3.90;;;;;;;6.00;100.00;99093.69;5074417;28;20241;-70
2022/01/11 03:22:58;;;;;;;5.60;5.10;;;;;;;6.13;100.00;99087.84;5074853;28;20639;-69
2022/01/11 03:25:26;;;;;;;6.27;5.67;;;;;;;6.16;100.00;99084.84;5074525;28;20192;-71
2022/01/11 03:27:53;;;;;;;5.43;5.07;;;;;;;6.19;100.00;99079.22;5074588;28;20680;-70
2022/01/11 03:30:21;;;;;;;4.70;4.40;;;;;;;6.19;100.00;99084.47;5074773;28;20196;-69
2022/01/11 03:32:48;;;;;;;5.33;4.90;;;;;;;6.08;100.00;99098.09;5074447;28;20241;-69
2022/01/11 03:35:15;;;;;;;5.27;4.77;;;;;;;6.15;100.00;99099.00;5073684;28;20189;-71
2022/01/11 03:37:43;;;;;;;6.20;5.60;;;;;;;6.09;100.00;99102.38;5074394;28;20192;-70
2022/01/11 03:40:13;;;;;;;5.80;5.40;;;;;;;5.99;100.00;99109.69;5074824;28;20199;-68
2022/01/11 03:42:40;;;;;;;5.03;4.60;;;;;;;6.03;100.00;99103.06;5074630;28;20200;-70
2022/01/11 03:45:08;;;;;;;6.67;5.43;;;;;;;6.04;100.00;99102.09;5074060;28;20226;-69
2022/01/11 03:47:37;;;;;;;8.23;5.53;;;;;;;6.13;100.00;99108.94;5074325;28;20246;-69
2022/01/11 03:50:04;;;;;;;5.17;4.60;;;;;;;6.16;100.00;99112.03;5073881;28;20558;-70
2022/01/11 03:52:31;;;;;;;4.70;4.30;;;;;;;6.18;100.00;99119.75;5073935;28;20215;-71
2022/01/11 03:55:05;;;;;;;5.03;4.70;;;;;;;6.04;100.00;99113.44;5074173;28;20249;-69
2022/01/11 03:57:33;;;;;;;4.27;3.93;;;;;;;6.03;100.00;99126.78;5074321;28;20216;-70
2022/01/11 04:00:05;;;;;;;4.17;3.87;;;;;;;6.09;100.00;99132.22;5074291;28;20249;-70
2022/01/11 04:02:32;;;;;;;3.80;3.60;;;;;;;5.98;100.00;99126.50;5073934;28;20188;-71
2022/01/11 04:05:00;;;;;;;3.57;3.37;;;;;;;6.03;100.00;99137.34;5074049;28;20261;-69
2022/01/11 04:07:28;;;;;;;3.70;3.50;;;;;;;6.11;100.00;99132.84;5073940;28;20196;-69
2022/01/11 04:09:56;;;;;;;3.60;3.40;;;;;;;6.09;100.00;99141.91;5073819;28;20251;-69
2022/01/11 04:12:25;;;;;;;3.73;3.53;;;;;;;6.05;100.00;99152.00;5073541;28;20404;-71
2022/01/11 04:14:52;;;;;;;5.60;5.30;;;;;;;6.05;100.00;99148.53;5073794;28;20196;-71
2022/01/11 04:17:19;;;;;;;5.37;4.97;;;;;;;6.05;100.00;99145.91;5073686;28;20249;-70
2022/01/11 04:19:46;;;;;;;5.10;4.70;;;;;;;6.05;100.00;99152.00;5073502;28;20332;-71
2022/01/11 04:22:14;;;;;;;4.20;3.90;;;;;;;6.05;100.00;99149.38;5073799;28;20200;-70
2022/01/11 04:24:41;;;;;;;4.43;4.17;;;;;;;6.03;100.00;99151.34;5073411;28;20253;-70
2022/01/11 04:27:07;;;;;;;5.20;4.70;;;;;;;6.03;100.00;99164.53;5073131;28;20655;-70
2022/01/11 04:29:34;;;;;;;5.43;5.13;;;;;;;5.98;100.00;99158.97;5073194;28;20196;-71
2022/01/11 04:32:01;;;;;;;4.70;4.40;;;;;;;5.83;100.00;99155.44;5072369;28;20780;-69
2022/01/11 04:34:28;;;;;;;5.00;4.70;;;;;;;5.88;100.00;99158.34;5073251;28;20184;-70
2022/01/11 04:36:55;;;;;;;4.30;4.10;;;;;;;5.87;100.00;99163.81;5073053;28;20200;-70
2022/01/11 04:39:23;;;;;;;4.57;4.27;;;;;;;5.93;100.00;99158.69;5072695;28;20223;-69
2022/01/11 04:41:50;;;;;;;4.10;3.90;;;;;;;5.79;100.00;99168.13;5072990;28;20257;-70
2022/01/11 04:44:17;;;;;;;5.00;4.63;;;;;;;5.83;100.00;99155.44;5072462;28;20196;-71
2022/01/11 04:46:44;;;;;;;4.47;4.20;;;;;;;5.91;100.00;99160.66;5072584;28;20249;-70
2022/01/11 04:49:11;;;;;;;4.20;4.00;;;;;;;5.93;100.00;99169.22;5072659;28;20253;-70
2022/01/11 04:51:37;;;;;;;4.40;4.10;;;;;;;6.01;100.00;99165.69;5072617;28;20276;-69
2022/01/11 04:54:04;;;;;;;5.33;4.97;;;;;;;5.91;100.00;99162.47;5072071;28;20726;-70
2022/01/11 04:56:32;;;;;;;4.30;4.00;;;;;;;6.01;100.00;99160.44;5072735;28;20191;-68
2022/01/11 04:58:59;;;;;;;5.37;4.97;;;;;;;5.80;100.00;99166.28;5072553;28;20188;-70
2022/01/11 05:01:26;;;;;;;4.17;3.97;;;;;;;5.88;100.00;99176.81;5072395;28;20188;-70
2022/01/11 05:03:53;;;;;;;4.20;4.00;;;;;;;5.93;100.00;99178.94;5072011;28;20199;-71
2022/01/11 05:06:20;;;;;;;3.10;2.90;;;;;;;5.95;100.00;99182.22;5072421;28;20197;-71
2022/01/11 05:08:48;;;;;;;3.67;3.47;;;;;;;5.92;100.00;99186.00;5072761;28;20196;-70
2022/01/11 05:11:15;;;;;;;3.40;3.10;;;;;;;5.82;100.00;99181.94;5072297;28;20196;-71
2022/01/11 05:13:43;;;;;;;3.20;3.07;;;;;;;5.91;100.00;99191.47;5072367;28;20215;-70
2022/01/11 05:16:10;;;;;;;3.57;3.47;;;;;;;5.87;100.00;99195.44;5072075;28;20195;-69
2022/01/11 05:18:37;;;;;;;4.43;4.13;;;;;;;5.83;100.00;99204.69;5071933;28;20192;-69
2022/01/11 05:21:04;;;;;;;3.40;3.20;;;;;;;5.83;100.00;99205.50;5071990;28;20192;-68
2022/01/11 05:23:32;;;;;;;3.87;3.67;;;;;;;5.69;100.00;99209.66;5072317;28;20196;-66
2022/01/11 05:25:59;;;;;;;3.70;3.50;;;;;;;5.69;100.00;99209.66;5071988;28;20246;-67
2022/01/11 05:28:26;;;;;;;4.37;4.17;;;;;;;5.60;100.00;99215.94;5072449;28;20191;-67
2022/01/11 05:30:54;;;;;;;3.87;3.67;;;;;;;5.69;100.00;99230.72;5072183;28;20193;-65
2022/01/11 05:33:21;;;;;;;9.00;8.10;;;;;;;5.78;100.00;99224.44;5072051;28;20706;-67
2022/01/11 05:35:48;;;;;;;4.87;4.57;;;;;;;5.93;100.00;99226.38;5072226;28;20192;-70
2022/01/11 05:38:15;;;;;;;4.30;4.03;;;;;;;5.92;100.00;99230.00;5071963;28;20195;-67
2022/01/11 05:40:42;;;;;;;4.70;4.40;;;;;;;5.93;100.00;99231.66;5072149;28;20253;-67
2022/01/11 05:43:09;;;;;;;3.53;3.33;;;;;;;5.88;99.68;99239.25;5071948;28;20196;-67
2022/01/11 05:45:35;;;;;;;4.20;4.00;;;;;;;5.75;100.00;99248.50;5071744;28;20188;-67
2022/01/11 05:48:04;;;;;;;3.67;3.47;;;;;;;5.70;100.00;99248.19;5071702;28;20245;-68
2022/01/11 05:50:31;;;;;;;4.33;4.13;;;;;;;5.79;100.00;99241.06;5071782;28;20196;-70
2022/01/11 05:52:58;;;;;;;4.10;3.90;;;;;;;6.21;100.00;99246.78;5071609;28;20224;-64
2022/01/11 05:55:25;;;;;;;4.47;4.20;;;;;;;6.18;100.00;99256.88;5071535;28;20195;-65
2022/01/11 05:57:51;;;;;;;3.97;3.77;;;;;;;6.08;99.65;99267.63;5071129;28;20192;-65
2022/01/11 06:00:20;;;;;;;4.47;4.23;;;;;;;5.84;99.57;99264.31;5071280;28;20192;-66
2022/01/11 06:02:54;;;;;;;4.53;4.23;;;;;;;5.85;100.00;99273.84;5071150;28;20200;-65
2022/01/11 06:05:23;;;;;;;4.37;4.03;;;;;;;5.79;100.00;99284.06;5071767;28;20562;-66
2022/01/11 06:07:50;;;;;;;4.73;4.33;;;;;;;5.77;100.00;99274.69;5071501;28;20229;-66
2022/01/11 06:10:17;;;;;;;5.10;4.80;;;;;;;5.82;100.00;99279.47;5071159;28;20733;-66
2022/01/11 06:12:44;;;;;;;4.07;3.87;;;;;;;5.79;100.00;99284.06;5071958;28;20604;-65
2022/01/11 06:15:11;;;;;;;4.87;4.57;;;;;;;5.68;100.00;99297.59;5071453;28;20196;-65
2022/01/11 06:17:37;;;;;;;5.83;5.53;;;;;;;5.73;100.00;99310.28;5071245;28;20748;-64
2022/01/11 06:20:05;;;;;;;5.50;5.20;;;;;;;5.79;100.00;99294.59;5070212;28;20191;-64
2022/01/11 06:22:33;;;;;;;5.70;5.40;;;;;;;5.78;100.00;99302.66;5071345;28;20249;-65
2022/01/11 06:25:03;;;;;;;5.40;4.90;;;;;;;5.90;100.00;99305.78;5070710;28;20187;-65
2022/01/11 06:27:30;;;;;;;5.33;4.93;;;;;;;5.90;99.83;99311.06;5071622;28;20211;-65
2022/01/11 06:29:57;;;;;;;5.73;5.37;;;;;;;5.86;99.67;99310.59;5071163;28;20242;-65
2022/01/11 06:32:24;;;;;;;6.03;5.63;;;;;;;5.85;99.46;99319.50;5066745;28;20219;-65
2022/01/11 06:34:52;;;;;;;6.23;5.83;;;;;;;5.92;99.67;99314.34;5071148;28;20185;-65
2022/01/11 06:37:19;;;;;;;6.50;5.90;;;;;;;5.83;100.00;99323.28;5070367;28;20275;-65
2022/01/11 06:39:47;;;;;;;8.50;6.57;;;;;;;5.82;99.97;99325.09;5070976;28;20250;-65
2022/01/11 06:42:13;;;;;;;7.13;6.63;;;;;;;5.67;100.00;99332.84;5051687;28;20192;-66
2022/01/11 06:44:41;;;;;;;9.00;8.20;;;;;;;5.55;100.00;99339.47;5051475;28;20211;-65
2022/01/11 06:47:08;;;;;;;12.83;9.13;;;;;;;5.56;100.00;99341.09;5050490;28;20203;-66
2022/01/11 06:49:35;;;;;;;12.47;10.03;;;;;;;5.60;100.00;99346.88;5060512;28;20199;-68
2022/01/11 06:52:06;;;;;;;11.17;10.07;;;;;;;5.67;100.00;99348.66;5067883;28;20647;-67
2022/01/11 06:54:32;;;;;;;11.57;10.37;;;;;;;5.74;100.00;99354.91;5069547;28;20258;-67
2022/01/11 06:57:00;;;;;;;10.80;9.80;;;;;;;5.65;100.00;99353.25;5069013;28;20184;-66
2022/01/11 06:59:27;;;;;;;10.23;9.03;;;;;;;5.63;100.00;99357.88;5069800;28;20743;-65
2022/01/11 07:01:54;;;;;;;11.53;10.23;;;;;;;5.65;100.00;99361.16;5050030;28;20200;-64
2022/01/11 07:04:21;;;;;;;10.47;9.47;;;;;;;5.70;100.00;99369.41;5051364;28;20254;-66
2022/01/11 07:06:47;;;;;;;11.03;9.87;;;;;;;5.76;100.00;99367.91;5061061;28;20226;-65
2022/01/11 07:09:14;;;;;;;11.10;10.10;;;;;;;5.83;100.00;99370.72;5070475;28;20567;-65
2022/01/11 07:11:41;;;;;;;11.27;10.27;;;;;;;5.95;100.00;99370.19;5072673;28;20213;-66
2022/01/11 07:14:09;;;;;;;10.90;9.80;;;;;;;5.86;100.00;99373.00;5072738;28;20621;-67
2022/01/11 07:16:35;;;;;;;9.90;9.10;;;;;;;5.86;100.00;99388.81;5070710;28;20196;-67
2022/01/11 07:19:02;;;;;;;10.77;9.87;;;;;;;5.78;100.00;99382.56;5072266;28;20237;-67
2022/01/11 07:21:29;;;;;;;11.10;10.10;;;;;;;5.85;100.00;99381.91;5072745;28;20200;-67
2022/01/11 07:23:56;;;;;;;11.80;9.70;;;;;;;5.78;100.00;99381.72;5071980;28;20287;-66
2022/01/11 07:26:22;;;;;;;12.13;10.83;;;;;;;5.75;100.00;99380.25;5073057;28;20192;-67
2022/01/11 07:28:49;;;;;;;29.57;21.17;;;;;;;5.79;100.00;99397.38;5071421;28;20289;-66
2022/01/11 07:31:17;;;;;;;20.67;14.97;;;;;;;5.70;100.00;99401.03;5073441;28;20250;-66
2022/01/11 07:33:44;;;;;;;12.70;10.00;;;;;;;5.80;100.00;99416.63;5072149;28;20232;-67
2022/01/11 07:36:11;;;;;;;10.63;9.63;;;;;;;5.79;100.00;99423.72;5072505;28;20196;-67
2022/01/11 07:38:38;;;;;;;10.17;8.83;;;;;;;5.90;100.00;99427.03;5072385;28;20245;-66
2022/01/11 07:41:05;;;;;;;8.60;7.80;;;;;;;5.78;100.00;99423.91;5069999;28;20253;-66
2022/01/11 07:43:32;;;;;;;8.93;8.23;;;;;;;5.79;100.00;99423.72;5072663;28;20235;-66
2022/01/11 07:45:58;;;;;;;9.23;8.33;;;;;;;5.81;100.00;99423.59;5072700;28;20188;-67
2022/01/11 07:48:27;;;;;;;9.57;8.57;;;;;;;5.81;100.00;99428.03;5072400;28;20189;-66
2022/01/11 07:50:53;;;;;;;8.17;7.47;;;;;;;5.83;100.00;99436.63;5072550;28;20896;-66
2022/01/11 07:53:20;;;;;;;9.77;8.77;;;;;;;5.92;100.00;99446.16;5072760;28;20285;-66
2022/01/11 07:55:47;;;;;;;8.73;7.70;;;;;;;5.85;99.83;99445.16;5072233;28;20195;-66
2022/01/11 07:58:13;;;;;;;10.40;9.40;;;;;;;5.63;100.00;99452.72;5072087;28;20255;-67
2022/01/11 08:00:40;;;;;;;9.30;8.60;;;;;;;5.71;100.00;99450.09;5066499;28;20233;-66
2022/01/11 08:03:07;;;;;;;9.20;8.50;;;;;;;5.81;100.00;99444.69;5072781;28;20249;-66
2022/01/11 08:05:35;;;;;;;7.80;7.03;;;;;;;5.83;100.00;99452.44;5072339;28;20196;-66
2022/01/11 08:08:02;;;;;;;8.77;7.90;;;;;;;5.84;100.00;99454.06;5071472;28;20249;-67
2022/01/11 08:10:29;;;;;;;9.03;8.07;;;;;;;5.83;100.00;99460.34;5072034;28;20276;-67
2022/01/11 08:12:55;;;;;;;8.60;7.83;;;;;;;5.86;99.90;99462.63;5068934;28;20192;-68
2022/01/11 08:15:22;;;;;;;7.50;6.90;;;;;;;5.88;99.95;99469.34;5071264;28;20192;-68
2022/01/11 08:17:49;;;;;;;6.03;5.63;;;;;;;5.75;99.78;99475.13;5070824;28;20192;-69
2022/01/11 08:20:16;;;;;;;6.80;6.20;;;;;;;5.83;98.99;99476.16;5071942;28;20253;-69
2022/01/11 08:22:48;;;;;;;8.00;7.20;;;;;;;5.84;99.81;99477.78;5070888;28;20192;-68
2022/01/11 08:25:15;;;;;;;6.57;6.07;;;;;;;5.86;100.00;99481.06;5073609;28;20184;-69
2022/01/11 08:27:42;;;;;;;7.57;6.93;;;;;;;5.91;99.53;99481.41;5072257;28;20192;-68
2022/01/11 08:30:10;;;;;;;6.30;5.87;;;;;;;5.87;99.72;99480.09;5071662;28;20257;-68
2022/01/11 08:32:36;;;;;;;6.37;5.80;;;;;;;5.76;100.00;99471.50;5071152;28;20227;-68
2022/01/11 08:35:04;;;;;;;6.40;5.90;;;;;;;5.89;100.00;99483.38;5071856;28;20269;-68
2022/01/11 08:37:31;;;;;;;6.37;5.97;;;;;;;5.95;100.00;99488.00;5071776;28;20188;-68
2022/01/11 08:39:59;;;;;;;7.13;6.53;;;;;;;5.96;99.15;99490.44;5071536;28;20231;-68
2022/01/11 08:42:27;;;;;;;6.90;6.50;;;;;;;5.79;99.56;99489.63;5071762;28;20253;-67
2022/01/11 08:44:54;;;;;;;7.33;6.83;;;;;;;5.81;99.97;99486.00;5070708;28;20231;-68
2022/01/11 08:47:21;;;;;;;8.53;7.83;;;;;;;5.76;99.43;99482.03;5083770;28;20195;-68
2022/01/11 08:49:48;;;;;;;7.63;6.97;;;;;;;5.79;100.00;99479.06;5091013;28;20201;-69
2022/01/11 08:52:15;;;;;;;7.27;6.67;;;;;;;5.87;99.88;99483.53;5091393;28;20272;-68
2022/01/11 08:54:42;;;;;;;7.40;6.77;;;;;;;5.94;99.05;99491.59;5081680;28;20580;-67
2022/01/11 08:57:10;;;;;;;8.20;7.50;;;;;;;5.90;98.87;99490.28;5070920;28;20206;-68
2022/01/11 08:59:36;;;;;;;7.83;7.07;;;;;;;5.96;98.55;99487.81;5070340;28;20667;-67
2022/01/11 09:02:05;;;;;;;8.30;7.53;;;;;;;6.05;98.43;99489.47;5067879;28;20258;-68
2022/01/11 09:04:32;;;;;;;7.67;6.90;;;;;;;6.11;98.56;99498.50;5077363;28;20265;-68
2022/01/11 09:06:58;;;;;;;8.83;7.97;;;;;;;6.09;98.36;99495.22;5071752;28;20195;-67
2022/01/11 09:09:26;;;;;;;9.33;8.43;;;;;;;5.99;97.91;99499.81;5071029;28;20743;-67
2022/01/11 09:11:53;;;;;;;9.20;8.43;;;;;;;5.94;98.46;99496.88;5066237;28;20993;-67
2022/01/11 09:14:21;;;;;;;13.33;9.33;;;;;;;5.99;98.65;99489.28;5069938;28;20220;-67
2022/01/11 09:16:48;;;;;;;8.97;8.17;;;;;;;5.93;98.12;99495.22;5069907;28;20632;-67
2022/01/11 09:19:16;;;;;;;8.03;7.33;;;;;;;5.89;98.48;99499.19;5069460;28;20573;-68
2022/01/11 09:21:43;;;;;;;7.97;7.37;;;;;;;5.92;98.68;99496.22;5070865;28;20199;-67
2022/01/11 09:24:11;;;;;;;6.97;6.37;;;;;;;6.06;98.84;99500.81;5070437;28;20253;-67
2022/01/11 09:26:38;;;;;;;7.00;6.40;;;;;;;6.17;98.32;99495.19;5071223;28;20249;-67
2022/01/11 09:29:05;;;;;;;6.80;6.13;;;;;;;6.28;98.04;99494.84;5071795;28;20192;-69
2022/01/11 09:31:33;;;;;;;7.23;6.73;;;;;;;6.23;97.28;99499.78;5071917;28;20231;-70
2022/01/11 09:34:00;;;;;;;7.67;6.87;;;;;;;6.22;97.24;99495.50;5070205;28;20308;-69
2022/01/11 09:36:31;;;;;;;8.10;7.50;;;;;;;6.31;98.30;99502.41;5069133;28;20197;-71
2022/01/11 09:38:57;;;;;;;10.07;9.00;;;;;;;6.24;97.75;99504.09;5068101;28;20200;-68
2022/01/11 09:41:24;;;;;;;10.13;9.13;;;;;;;6.10;97.73;99502.13;5066278;28;20679;-69
2022/01/11 09:43:54;;;;;;;7.80;7.20;;;;;;;6.02;98.35;99502.13;5066691;28;20253;-69
2022/01/11 09:46:23;;;;;;;10.77;8.87;;;;;;;6.03;98.75;99509.88;5066769;28;20200;-69
2022/01/11 09:48:53;;;;;;;8.30;7.50;;;;;;;6.05;99.13;99507.06;5067724;28;20195;-69
2022/01/11 09:51:19;;;;;;;7.53;6.77;;;;;;;6.07;98.40;99511.19;5068977;28;20206;-70
2022/01/11 09:53:46;;;;;;;12.80;9.30;;;;;;;5.82;98.58;99482.38;5066788;28;20227;-66
2022/01/11 09:56:13;;;;;;;9.03;8.33;;;;;;;6.03;98.47;99507.25;5069272;28;20245;-67
2022/01/11 09:58:41;;;;;;;7.00;6.40;;;;;;;6.07;98.20;99500.66;5069113;28;20663;-65
2022/01/11 10:01:08;;;;;;;6.13;5.73;;;;;;;6.17;97.90;99503.94;5071515;28;20590;-64
2022/01/11 10:03:57;;;;;;;7.97;6.73;;;;;;;6.12;96.86;99508.06;5083950;28;20760;-66
2022/01/11 10:06:25;;;;;;;6.77;6.27;;;;;;;6.01;97.45;99503.13;5090765;28;20183;-66
2022/01/11 10:09:07;;;;;;;8.27;7.50;;;;;;;6.08;96.81;99514.66;5069202;28;20210;-65
2022/01/11 10:11:35;;;;;;;6.90;6.30;;;;;;;6.18;97.67;99515.28;5074228;28;20196;-67
2022/01/11 10:14:17;;;;;;;5.30;5.00;;;;;;;6.20;96.84;99505.41;5071724;28;20300;-66
2022/01/11 10:16:44;;;;;;;7.80;7.20;;;;;;;6.31;97.16;99505.88;5070557;28;20196;-67
2022/01/11 10:19:22;;;;;;;5.70;5.30;;;;;;;6.35;96.80;99506.34;5071005;28;20196;-66
2022/01/11 10:21:51;;;;;;;4.73;4.43;;;;;;;6.34;96.06;99516.09;5070213;28;20188;-66
2022/01/11 10:24:33;;;;;;;4.37;4.17;;;;;;;6.27;93.86;99524.81;5069969;28;20258;-66
2022/01/11 10:27:02;;;;;;;4.37;4.03;;;;;;;6.12;92.75;99532.59;5069303;28;20665;-69
2022/01/11 10:29:33;;;;;;;3.60;3.40;;;;;;;6.05;92.88;99531.66;5069480;28;20637;-68
2022/01/11 10:32:02;;;;;;;4.40;4.10;;;;;;;6.02;93.08;99524.06;5069544;28;20310;-68
2022/01/11 10:34:33;;;;;;;5.20;4.90;;;;;;;6.10;93.11;99523.22;5069653;28;20268;-69
2022/01/11 10:37:02;;;;;;;5.60;5.30;;;;;;;5.95;91.64;99530.16;5069377;28;20192;-69
2022/01/11 10:39:32;;;;;;;5.23;4.93;;;;;;;5.96;92.61;99526.53;5069830;28;20195;-68
2022/01/11 10:42:00;;;;;;;5.83;5.40;;;;;;;6.09;93.40;99532.13;5069371;28;20188;-67
2022/01/11 10:44:50;;;;;;;5.17;4.87;;;;;;;6.19;92.89;99530.13;5070096;28;20213;-68
2022/01/11 10:47:19;;;;;;;7.00;6.37;;;;;;;6.26;92.77;99531.94;5073178;28;20552;-68
2022/01/11 10:49:50;;;;;;;9.37;8.47;;;;;;;6.03;92.90;99532.78;5073244;28;20585;-70
2022/01/11 10:52:20;;;;;;;12.73;8.97;;;;;;;6.15;93.41;99528.81;5073007;28;20614;-69
2022/01/11 10:54:47;;;;;;;7.70;7.10;;;;;;;6.13;93.24;99529.00;5073369;28;20230;-71
2022/01/11 10:57:16;;;;;;;8.87;8.03;;;;;;;6.08;93.83;99533.94;5073188;28;20249;-68
2022/01/11 10:59:43;;;;;;;7.53;6.87;;;;;;;6.07;93.38;99528.81;5073265;28;20189;-69
2022/01/11 11:02:13;;;;;;;7.27;6.60;;;;;;;5.97;92.84;99528.19;5073153;28;20197;-68
2022/01/11 11:04:40;;;;;;;6.43;5.93;;;;;;;5.96;92.49;99537.88;5073285;28;20730;-68
2022/01/11 11:07:16;;;;;;;5.80;5.40;;;;;;;5.90;93.03;99527.19;5073164;28;20196;-67
2022/01/11 11:09:47;;;;;;;5.33;4.93;;;;;;;5.92;93.47;99533.94;5073342;28;20192;-68
2022/01/11 11:12:15;;;;;;;5.67;5.27;;;;;;;6.01;94.09;99530.31;5072627;28;20626;-69
2022/01/11 11:14:53;;;;;;;6.37;5.70;;;;;;;5.98;92.95;99535.94;5072471;28;20249;-68
2022/01/11 11:17:30;;;;;;;6.13;5.63;;;;;;;6.07;93.33;99534.91;5072933;28;20231;-68
2022/01/11 11:20:00;;;;;;;11.57;9.83;;;;;;;5.91;92.10;99529.66;5072567;28;20618;-68
2022/01/11 11:22:29;;;;;;;9.90;8.87;;;;;;;6.00;93.62;99530.50;5073219;28;20198;-69
2022/01/11 11:24:57;;;;;;;7.27;6.67;;;;;;;6.14;93.40;99535.06;5073741;28;20284;-67
2022/01/11 11:27:25;;;;;;;10.00;9.00;;;;;;;6.05;92.06;99534.28;5073697;28;20281;-68
2022/01/11 11:29:52;;;;;;;10.37;9.33;;;;;;;5.92;92.21;99530.50;5073815;28;20615;-68
2022/01/11 11:32:21;;;;;;;9.77;8.97;;;;;;;6.07;93.21;99539.34;5072899;28;20759;-67
2022/01/11 11:34:49;;;;;;;14.17;10.20;;;;;;;6.22;93.30;99532.44;5074142;28;20214;-68
2022/01/11 11:37:23;;;;;;;12.67;10.43;;;;;;;6.08;93.16;99533.13;5073740;28;20652;-68